createdAt,value
2022-10-23T00:02:26.412Z,8.75
2022-10-23T00:04:56.272Z,8.71
2022-10-23T00:07:26.161Z,8.67
2022-10-23T00:09:55.959Z,8.65
2022-10-23T00:12:27.421Z,8.65
2022-10-23T00:14:57.258Z,8.65
2022-10-23T00:17:27.063Z,8.60
2022-10-23T00:19:56.873Z,8.50
2022-10-23T00:22:26.750Z,8.39
2022-10-23T00:24:56.570Z,8.45
2022-10-23T00:27:26.701Z,8.33
2022-10-23T00:29:56.910Z,8.25
2022-10-23T00:32:27.753Z,8.19
2022-10-23T00:34:57.530Z,8.00
2022-10-23T00:37:27.516Z,7.94
2022-10-23T00:39:57.748Z,7.87
2022-10-23T00:42:27.728Z,7.88
2022-10-23T00:45:12.787Z,7.89
2022-10-23T00:47:42.810Z,7.87
2022-10-23T00:50:12.886Z,7.77
2022-10-23T00:52:45.736Z,7.77
2022-10-23T00:55:16.375Z,7.72
2022-10-23T00:57:49.203Z,7.69
2022-10-23T01:00:24.539Z,7.66
2022-10-23T01:02:55.880Z,7.60
2022-10-23T01:05:34.559Z,7.53
2022-10-23T01:08:23.253Z,7.58
2022-10-23T01:11:01.759Z,7.73
2022-10-23T01:13:35.049Z,7.88
2022-10-23T01:16:16.637Z,7.81
2022-10-23T01:18:49.625Z,7.74
2022-10-23T01:21:47.696Z,7.64
2022-10-23T01:24:28.028Z,7.71
2022-10-23T01:27:06.825Z,7.82
2022-10-23T01:29:54.803Z,7.88
2022-10-23T01:32:29.344Z,8.41
2022-10-23T01:35:02.279Z,8.41
2022-10-23T01:37:38.323Z,8.54
2022-10-23T01:40:11.254Z,8.46
2022-10-23T01:42:44.755Z,8.69
2022-10-23T01:45:20.574Z,8.54
2022-10-23T01:47:51.718Z,8.67
2022-10-23T01:50:24.459Z,8.68
2022-10-23T01:52:56.127Z,8.96
2022-10-23T01:55:27.085Z,8.97
2022-10-23T01:57:59.702Z,8.99
2022-10-23T02:00:32.347Z,8.94
2022-10-23T02:03:04.699Z,9.17
2022-10-23T02:05:35.807Z,9.17
2022-10-23T02:08:07.848Z,9.18
2022-10-23T02:10:49.972Z,9.31
2022-10-23T02:13:51.471Z,9.46
2022-10-23T02:16:40.762Z,9.48
2022-10-23T02:19:34.534Z,9.46
2022-10-23T02:22:11.599Z,9.67
2022-10-23T02:24:56.948Z,9.79
2022-10-23T02:27:41.934Z,9.71
2022-10-23T02:30:15.594Z,10.01
2022-10-23T02:32:49.870Z,10.03
2022-10-23T02:35:22.217Z,9.99
2022-10-23T02:37:58.516Z,9.94
2022-10-23T02:40:35.056Z,10.02
2022-10-23T02:43:10.512Z,10.12
2022-10-23T02:45:49.177Z,10.10
2022-10-23T02:48:25.076Z,10.10
2022-10-23T02:51:04.728Z,10.22
2022-10-23T02:53:42.986Z,10.21
2022-10-23T02:56:15.616Z,10.29
2022-10-23T02:58:52.791Z,10.53
2022-10-23T03:01:25.886Z,10.53
2022-10-23T03:03:59.615Z,10.57
2022-10-23T03:06:29.506Z,10.62
2022-10-23T03:09:08.769Z,10.79
2022-10-23T03:11:39.833Z,10.79
2022-10-23T03:14:10.485Z,10.75
2022-10-23T03:16:40.015Z,10.68
2022-10-23T03:19:12.975Z,10.77
2022-10-23T03:21:42.993Z,10.95
2022-10-23T03:24:12.821Z,10.76
2022-10-23T03:26:43.387Z,10.88
2022-10-23T03:29:13.077Z,10.93
2022-10-23T03:31:47.504Z,11.05
2022-10-23T03:34:19.296Z,10.87
2022-10-23T03:36:49.037Z,10.83
2022-10-23T03:39:20.467Z,10.79
2022-10-23T03:41:50.627Z,10.82
2022-10-23T03:44:20.289Z,10.73
2022-10-23T03:46:50.106Z,10.83
2022-10-23T03:49:19.754Z,10.77
2022-10-23T03:51:51.208Z,10.82
2022-10-23T03:54:27.507Z,10.75
2022-10-23T03:56:58.052Z,10.71
2022-10-23T03:59:28.673Z,10.71
2022-10-23T04:02:01.549Z,10.71
2022-10-23T04:04:38.402Z,10.66
2022-10-23T04:07:10.453Z,10.59
2022-10-23T04:09:44.581Z,10.38
2022-10-23T04:12:16.198Z,10.53
2022-10-23T04:14:46.303Z,10.28
2022-10-23T04:17:16.248Z,10.30
2022-10-23T04:19:46.072Z,10.19
2022-10-23T04:22:15.892Z,10.27
2022-10-23T04:24:46.799Z,10.05
2022-10-23T04:27:18.299Z,10.07
2022-10-23T04:29:49.212Z,9.95
2022-10-23T04:32:19.191Z,9.91
2022-10-23T04:34:49.870Z,10.03
2022-10-23T04:37:19.736Z,9.85
2022-10-23T04:39:49.534Z,9.75
2022-10-23T04:42:19.200Z,9.69
2022-10-23T04:44:49.473Z,9.60
2022-10-23T04:47:19.224Z,9.54
2022-10-23T04:49:50.561Z,9.45
2022-10-23T04:52:21.060Z,9.38
2022-10-23T04:55:05.732Z,9.48
2022-10-23T04:57:37.241Z,9.46
2022-10-23T05:00:11.443Z,9.28
2022-10-23T05:02:46.390Z,9.28
2022-10-23T05:05:18.241Z,9.28
2022-10-23T05:07:58.459Z,9.21
2022-10-23T05:10:39.572Z,9.35
2022-10-23T05:13:19.851Z,9.42
2022-10-23T05:15:51.386Z,9.27
2022-10-23T05:18:29.594Z,9.41
2022-10-23T05:21:02.440Z,9.31
2022-10-23T05:23:34.353Z,9.24
2022-10-23T05:26:05.842Z,9.29
2022-10-23T05:28:35.701Z,9.33
2022-10-23T05:31:07.293Z,9.49
2022-10-23T05:33:41.014Z,9.32
2022-10-23T05:36:12.668Z,9.43
2022-10-23T05:38:43.552Z,9.40
2022-10-23T05:41:15.059Z,9.37
2022-10-23T05:43:46.238Z,9.32
2022-10-23T05:46:35.759Z,9.41
2022-10-23T05:49:07.088Z,9.30
2022-10-23T05:51:39.669Z,9.17
2022-10-23T05:54:27.730Z,9.00
2022-10-23T05:56:59.254Z,8.87
2022-10-23T05:59:33.485Z,8.69
2022-10-23T06:02:23.490Z,8.68
2022-10-23T06:04:55.487Z,8.64
2022-10-23T06:07:35.742Z,8.58
2022-10-23T06:10:07.494Z,8.59
2022-10-23T06:12:38.993Z,8.58
2022-10-23T06:15:10.349Z,8.72
2022-10-23T06:17:48.801Z,8.74
2022-10-23T06:20:23.143Z,8.67
2022-10-23T06:22:54.147Z,8.70
2022-10-23T06:25:25.663Z,8.70
2022-10-23T06:27:55.543Z,8.72
2022-10-23T06:30:26.271Z,8.71
2022-10-23T06:32:56.381Z,8.74
2022-10-23T06:35:31.774Z,8.83
2022-10-23T06:38:01.575Z,8.94
2022-10-23T06:40:33.072Z,9.00
2022-10-23T06:43:06.862Z,9.07
2022-10-23T06:45:38.367Z,9.20
2022-10-23T06:48:20.824Z,9.23
2022-10-23T06:50:58.438Z,9.14
2022-10-23T06:53:37.122Z,9.33
2022-10-23T06:56:17.604Z,9.46
2022-10-23T06:58:48.556Z,9.45
2022-10-23T07:01:18.803Z,9.61
2022-10-23T07:03:50.175Z,9.73
2022-10-23T07:06:22.716Z,9.98
2022-10-23T07:08:55.327Z,9.96
2022-10-23T07:11:33.594Z,10.15
2022-10-23T07:14:04.016Z,10.21
2022-10-23T07:16:33.797Z,10.24
2022-10-23T07:19:06.609Z,10.44
2022-10-23T07:21:53.438Z,10.69
2022-10-23T07:24:24.716Z,10.65
2022-10-23T07:26:56.223Z,10.80
2022-10-23T07:29:27.279Z,11.07
2022-10-23T07:31:58.008Z,11.28
2022-10-23T07:34:44.521Z,11.57
2022-10-23T07:37:21.497Z,11.77
2022-10-23T07:39:53.382Z,11.92
2022-10-23T07:42:23.102Z,11.94
2022-10-23T07:44:53.170Z,12.21
2022-10-23T07:47:23.469Z,12.09
2022-10-23T07:49:53.452Z,12.24
2022-10-23T07:52:23.604Z,12.32
2022-10-23T07:55:14.127Z,12.52
2022-10-23T07:57:45.640Z,12.89
2022-10-23T08:00:17.322Z,13.04
2022-10-23T08:02:50.834Z,13.32
2022-10-23T08:05:22.079Z,13.39
2022-10-23T08:07:53.678Z,13.50
2022-10-23T08:10:24.609Z,13.61
2022-10-23T08:12:54.557Z,13.61
2022-10-23T08:15:26.141Z,13.83
2022-10-23T08:17:57.636Z,14.06
2022-10-23T08:20:28.155Z,14.49
2022-10-23T08:22:57.913Z,14.80
2022-10-23T08:25:28.779Z,14.80
2022-10-23T08:27:59.285Z,14.98
2022-10-23T08:30:30.249Z,15.00
2022-10-23T08:33:00.182Z,15.28
2022-10-23T08:35:31.176Z,15.14
2022-10-23T08:38:00.942Z,15.43
2022-10-23T08:40:31.987Z,15.96
2022-10-23T08:43:27.860Z,15.78
2022-10-23T08:46:09.413Z,15.96
2022-10-23T08:48:50.443Z,16.40
2022-10-23T08:51:24.716Z,16.40
2022-10-23T08:54:00.114Z,16.62
2022-10-23T08:56:36.270Z,16.62
2022-10-23T08:59:36.721Z,16.61
2022-10-23T09:02:18.376Z,16.93
2022-10-23T09:04:51.847Z,17.07
2022-10-23T09:07:39.468Z,17.03
2022-10-23T09:10:24.191Z,17.14
2022-10-23T09:12:56.497Z,16.93
2022-10-23T09:15:31.764Z,17.70
2022-10-23T09:18:18.088Z,17.43
2022-10-23T09:20:48.332Z,17.56
2022-10-23T09:23:23.799Z,17.97
2022-10-23T09:25:57.699Z,18.33
2022-10-23T09:28:30.553Z,18.28
2022-10-23T09:31:15.273Z,18.49
2022-10-23T09:34:01.260Z,18.45
2022-10-23T09:36:31.160Z,17.97
2022-10-23T09:39:02.126Z,18.29
2022-10-23T09:41:37.921Z,18.23
2022-10-23T09:44:21.265Z,18.71
2022-10-23T09:47:04.573Z,17.91
2022-10-23T09:49:36.018Z,17.30
2022-10-23T09:52:12.403Z,17.61
2022-10-23T09:54:48.266Z,17.66
2022-10-23T09:57:23.981Z,17.43
2022-10-23T09:59:57.119Z,17.79
2022-10-23T10:02:34.926Z,17.84
2022-10-23T10:05:32.738Z,17.49
2022-10-23T10:08:18.659Z,17.48
2022-10-23T10:10:54.219Z,17.87
2022-10-23T10:13:42.783Z,18.35
2022-10-23T10:16:30.564Z,18.14
2022-10-23T10:19:06.913Z,17.67
2022-10-23T10:21:39.715Z,17.58
2022-10-23T10:24:21.424Z,17.44
2022-10-23T10:27:01.107Z,17.27
2022-10-23T10:29:49.302Z,17.34
2022-10-23T10:32:37.838Z,17.24
2022-10-23T10:35:29.625Z,17.12
2022-10-23T10:38:19.237Z,17.13
2022-10-23T10:41:12.753Z,16.98
2022-10-23T10:43:46.867Z,16.78
2022-10-23T10:46:46.415Z,17.13
2022-10-23T10:49:29.714Z,17.65
2022-10-23T10:52:16.550Z,17.51
2022-10-23T10:55:09.187Z,18.03
2022-10-23T10:57:43.044Z,18.13
2022-10-23T11:00:19.104Z,18.30
2022-10-23T11:02:57.467Z,18.42
2022-10-23T11:05:33.336Z,17.95
2022-10-23T11:08:12.158Z,17.92
2022-10-23T11:10:46.917Z,17.88
2022-10-23T11:13:28.236Z,17.88
2022-10-23T11:16:03.323Z,17.61
2022-10-23T11:18:35.357Z,17.71
2022-10-23T11:21:28.285Z,18.03
2022-10-23T11:24:13.029Z,18.29
2022-10-23T11:27:10.024Z,18.43
2022-10-23T11:29:54.915Z,18.72
2022-10-23T11:32:47.489Z,18.76
2022-10-23T11:35:25.240Z,18.69
2022-10-23T11:38:04.160Z,19.27
2022-10-23T11:40:34.660Z,19.13
2022-10-23T11:43:03.484Z,18.90
2022-10-23T11:45:37.810Z,18.70
2022-10-23T11:48:24.958Z,18.69
2022-10-23T11:50:56.860Z,18.86
2022-10-23T11:53:36.802Z,18.57
2022-10-23T11:56:16.207Z,18.81
2022-10-23T11:58:49.701Z,18.68
2022-10-23T12:01:31.211Z,18.68
2022-10-23T12:04:04.059Z,18.71
2022-10-23T12:07:00.626Z,18.88
2022-10-23T12:09:36.438Z,18.40
2022-10-23T12:12:12.227Z,18.36
2022-10-23T12:14:45.336Z,18.11
2022-10-23T12:17:27.016Z,18.44
2022-10-23T12:20:14.883Z,18.42
2022-10-23T12:23:00.093Z,18.39
2022-10-23T12:25:54.042Z,18.19
2022-10-23T12:28:26.914Z,18.23
2022-10-23T12:31:06.067Z,18.00
2022-10-23T12:33:54.440Z,18.10
2022-10-23T12:36:35.980Z,18.11
2022-10-23T12:39:26.838Z,17.77
2022-10-23T12:41:57.541Z,18.28
2022-10-23T12:44:28.259Z,18.51
2022-10-23T12:47:00.910Z,18.69
2022-10-23T12:49:33.699Z,18.80
2022-10-23T12:52:10.027Z,18.66
2022-10-23T12:54:45.366Z,18.66
2022-10-23T12:57:26.570Z,18.87
2022-10-23T13:00:04.798Z,18.79
2022-10-23T13:02:35.590Z,18.80
2022-10-23T13:05:11.651Z,18.84
2022-10-23T13:07:47.398Z,18.43
2022-10-23T13:10:20.868Z,18.43
2022-10-23T13:13:02.049Z,18.69
2022-10-23T13:15:43.565Z,18.19
2022-10-23T13:18:15.788Z,18.15
2022-10-23T13:20:58.649Z,18.31
2022-10-23T13:23:34.582Z,18.22
2022-10-23T13:26:28.086Z,18.32
2022-10-23T13:28:58.912Z,18.45
2022-10-23T13:31:37.003Z,17.94
2022-10-23T13:34:10.023Z,18.09
2022-10-23T13:36:41.345Z,18.22
2022-10-23T13:39:13.884Z,18.22
2022-10-23T13:41:46.617Z,18.13
2022-10-23T13:44:20.271Z,18.23
2022-10-23T13:46:52.268Z,18.34
2022-10-23T13:49:23.184Z,18.27
2022-10-23T13:51:56.625Z,17.91
2022-10-23T13:54:30.475Z,17.93
2022-10-23T13:57:00.584Z,17.71
2022-10-23T13:59:30.474Z,17.59
2022-10-23T14:02:00.860Z,17.92
2022-10-23T14:04:30.548Z,17.61
2022-10-23T14:07:00.681Z,17.64
2022-10-23T14:09:31.649Z,17.87
2022-10-23T14:12:01.277Z,17.84
2022-10-23T14:14:31.208Z,17.47
2022-10-23T14:17:01.190Z,17.46
2022-10-23T14:19:31.061Z,17.46
2022-10-23T14:22:00.929Z,17.23
2022-10-23T14:24:31.674Z,17.26
2022-10-23T14:27:04.831Z,17.08
2022-10-23T14:29:36.729Z,16.95
2022-10-23T14:32:06.928Z,17.23
2022-10-23T14:34:38.883Z,17.01
2022-10-23T14:37:09.232Z,17.01
2022-10-23T14:39:39.187Z,16.87
2022-10-23T14:42:08.806Z,16.54
2022-10-23T14:47:08.519Z,16.25
2022-10-23T14:49:40.118Z,16.22
2022-10-23T14:52:10.114Z,16.18
2022-10-23T14:54:41.375Z,16.05
2022-10-23T14:57:12.999Z,15.92
2022-10-23T14:59:43.347Z,15.80
2022-10-23T15:02:14.901Z,15.73
2022-10-23T15:04:44.782Z,15.61
2022-10-23T15:07:16.656Z,15.66
2022-10-23T15:09:48.410Z,15.67
2022-10-23T15:12:18.356Z,15.64
2022-10-23T15:14:49.140Z,15.49
2022-10-23T15:17:18.961Z,15.26
2022-10-23T15:19:48.840Z,15.05
2022-10-23T15:22:19.617Z,15.08
2022-10-23T15:24:49.491Z,14.89
2022-10-23T15:27:19.866Z,14.65
2022-10-23T15:29:49.752Z,14.50
2022-10-23T15:32:19.765Z,14.38
2022-10-23T15:34:49.826Z,14.29
2022-10-23T15:37:19.322Z,14.14
2022-10-23T15:39:50.011Z,14.11
2022-10-23T15:42:19.891Z,14.25
2022-10-23T15:44:49.799Z,14.10
2022-10-23T15:47:19.344Z,14.17
2022-10-23T15:49:49.175Z,13.99
2022-10-23T15:52:18.734Z,13.77
2022-10-23T15:54:48.579Z,13.63
2022-10-23T15:57:18.325Z,13.61
2022-10-23T15:59:48.129Z,13.60
2022-10-23T16:02:17.791Z,13.41
2022-10-23T16:04:47.644Z,13.14
2022-10-23T16:07:17.159Z,13.12
2022-10-23T16:09:46.961Z,13.01
2022-10-23T16:12:17.158Z,12.92
2022-10-23T16:14:47.334Z,12.85
2022-10-23T16:17:17.689Z,12.77
2022-10-23T16:19:47.775Z,12.85
2022-10-23T16:22:17.515Z,12.66
2022-10-23T16:24:47.354Z,12.48
2022-10-23T16:27:17.322Z,12.43
2022-10-23T16:29:47.133Z,12.35
2022-10-23T16:32:16.713Z,12.31
2022-10-23T16:34:46.694Z,12.26
2022-10-23T16:37:16.271Z,12.00
2022-10-23T16:39:50.790Z,11.96
2022-10-23T16:42:40.586Z,11.84
2022-10-23T16:45:17.718Z,11.84
2022-10-23T16:47:47.526Z,11.79
2022-10-23T16:50:17.492Z,11.75
2022-10-23T16:52:48.376Z,11.75
2022-10-23T16:55:18.877Z,11.76
2022-10-23T16:57:48.678Z,11.68
2022-10-23T17:00:20.397Z,11.60
2022-10-23T17:02:51.212Z,11.68
2022-10-23T17:05:21.052Z,11.60
2022-10-23T17:07:51.838Z,11.49
2022-10-23T17:10:21.857Z,11.48
2022-10-23T17:12:51.660Z,11.31
2022-10-23T17:15:21.271Z,11.24
2022-10-23T17:17:51.077Z,11.27
2022-10-23T17:20:20.742Z,11.45
2022-10-23T17:22:50.731Z,11.23
2022-10-23T17:25:20.556Z,11.16
2022-10-23T17:27:50.637Z,11.42
2022-10-23T17:30:20.531Z,11.20
2022-10-23T17:32:50.339Z,11.33
2022-10-23T17:35:20.217Z,11.27
2022-10-23T17:37:50.591Z,11.40
2022-10-23T17:40:24.867Z,11.27
2022-10-23T17:42:52.092Z,11.31
2022-10-23T17:45:21.636Z,11.19
2022-10-23T17:47:51.438Z,10.95
2022-10-23T17:50:20.983Z,11.02
2022-10-23T17:52:50.857Z,11.12
2022-10-23T17:55:20.713Z,10.81
2022-10-23T17:57:50.527Z,10.76
2022-10-23T18:00:20.450Z,10.63
2022-10-23T18:02:50.269Z,10.65
2022-10-23T18:05:20.129Z,10.65
2022-10-23T18:07:51.462Z,10.59
2022-10-23T18:10:21.211Z,10.51
2022-10-23T18:12:51.353Z,10.59
2022-10-23T18:15:21.080Z,10.52
2022-10-23T18:17:50.893Z,10.52
2022-10-23T18:20:24.739Z,10.49
2022-10-23T18:22:54.631Z,10.47
2022-10-23T18:25:24.297Z,10.60
2022-10-23T18:27:54.129Z,10.62
2022-10-23T18:30:23.752Z,10.53
2022-10-23T18:32:53.647Z,10.49
2022-10-23T18:35:23.181Z,10.37
2022-10-23T18:37:52.998Z,10.66
2022-10-23T18:40:25.609Z,10.47
2022-10-23T18:42:54.062Z,10.44
2022-10-23T18:45:23.943Z,10.43
2022-10-23T18:47:53.930Z,10.34
2022-10-23T18:50:24.732Z,10.28
2022-10-23T18:52:54.352Z,10.42
2022-10-23T18:55:24.089Z,10.55
2022-10-23T18:57:53.914Z,10.54
2022-10-23T19:00:23.416Z,10.65
2022-10-23T19:02:53.307Z,10.54
2022-10-23T19:05:22.878Z,10.64
2022-10-23T19:07:54.122Z,10.62
2022-10-23T19:10:26.671Z,10.80
2022-10-23T19:12:59.865Z,10.85
2022-10-23T19:15:30.215Z,11.33
2022-10-23T19:18:00.753Z,11.24
2022-10-23T19:20:30.708Z,11.37
2022-10-23T19:23:02.155Z,11.36
2022-10-23T19:25:34.383Z,11.34
2022-10-23T19:28:04.928Z,11.38
2022-10-23T19:30:36.364Z,11.49
2022-10-23T19:33:08.222Z,11.39
2022-10-23T19:35:38.029Z,11.46
2022-10-23T19:38:09.737Z,11.48
2022-10-23T19:40:39.552Z,11.34
2022-10-23T19:43:09.171Z,11.54
2022-10-23T19:45:39.253Z,11.30
2022-10-23T19:48:10.095Z,11.42
2022-10-23T19:50:41.491Z,11.39
2022-10-23T19:53:11.847Z,11.38
2022-10-23T19:55:41.346Z,11.31
2022-10-23T19:58:12.078Z,11.32
2022-10-23T20:00:40.855Z,11.36
2022-10-23T20:03:11.188Z,11.53
2022-10-23T20:05:43.737Z,11.44
2022-10-23T20:08:13.389Z,11.53
2022-10-23T20:10:46.596Z,11.44
2022-10-23T20:13:19.674Z,11.46
2022-10-23T20:15:47.498Z,11.48
2022-10-23T20:18:17.367Z,11.39
2022-10-23T20:20:47.471Z,11.40
2022-10-23T20:23:17.180Z,11.30
2022-10-23T20:25:48.410Z,11.25
2022-10-23T20:28:18.868Z,11.32
2022-10-23T20:30:48.465Z,11.30
2022-10-23T20:33:19.335Z,11.37
2022-10-23T20:35:49.427Z,11.40
2022-10-23T20:38:19.161Z,11.35
2022-10-23T20:40:49.128Z,11.37
2022-10-23T20:43:18.813Z,11.32
2022-10-23T20:45:48.640Z,11.43
2022-10-23T20:48:18.494Z,11.53
2022-10-23T20:50:48.371Z,11.40
2022-10-23T20:53:19.259Z,11.25
2022-10-23T20:55:49.230Z,11.42
2022-10-23T20:58:18.833Z,11.38
2022-10-23T21:00:48.791Z,11.29
2022-10-23T21:03:18.596Z,11.27
2022-10-23T21:05:48.453Z,11.28
2022-10-23T21:08:18.043Z,11.28
2022-10-23T21:10:48.184Z,11.25
2022-10-23T21:13:18.007Z,11.74
2022-10-23T21:15:47.877Z,11.48
2022-10-23T21:18:27.195Z,11.44
2022-10-23T21:20:49.920Z,11.51
2022-10-23T21:23:19.895Z,11.24
2022-10-23T21:25:49.796Z,11.20
2022-10-23T21:28:19.906Z,11.11
2022-10-23T21:30:49.768Z,11.01
2022-10-23T21:33:21.219Z,10.89
2022-10-23T21:35:58.457Z,10.79
2022-10-23T21:38:22.680Z,10.76
2022-10-23T21:40:52.560Z,10.72
2022-10-23T21:43:24.271Z,10.64
2022-10-23T21:45:56.756Z,10.55
2022-10-23T21:48:26.315Z,10.46
2022-10-23T21:51:02.798Z,10.46
2022-10-23T21:53:33.356Z,10.45
2022-10-23T21:56:05.983Z,10.45
2022-10-23T21:58:35.797Z,10.54
2022-10-23T22:01:07.661Z,10.63
2022-10-23T22:03:37.462Z,10.55
2022-10-23T22:06:07.242Z,10.59
2022-10-23T22:08:37.042Z,10.76
2022-10-23T22:11:07.261Z,10.81
2022-10-23T22:13:37.063Z,10.73
2022-10-23T22:16:07.046Z,10.73
2022-10-23T22:18:38.173Z,10.69
2022-10-23T22:21:20.657Z,10.67
2022-10-23T22:23:52.245Z,10.80
2022-10-23T22:26:33.687Z,10.95
2022-10-23T22:29:06.529Z,10.87
2022-10-23T22:31:37.847Z,10.91
2022-10-23T22:34:25.034Z,10.80
2022-10-23T22:36:41.732Z,10.77
2022-10-23T22:39:12.553Z,10.78
2022-10-23T22:41:43.303Z,11.00
2022-10-23T22:44:14.616Z,11.05
2022-10-23T22:46:44.943Z,10.88
2022-10-23T22:49:14.667Z,11.00
2022-10-23T22:51:44.478Z,11.02
2022-10-23T22:54:14.314Z,10.99
2022-10-23T22:56:44.116Z,10.94
2022-10-23T22:59:13.717Z,11.03
2022-10-23T23:01:46.598Z,10.99
2022-10-23T23:06:49.790Z,10.96
2022-10-23T23:09:20.249Z,11.05
2022-10-23T23:11:52.988Z,11.05
2022-10-23T23:14:23.772Z,11.08
2022-10-23T23:16:54.606Z,10.97
2022-10-23T23:19:23.446Z,10.97
2022-10-23T23:21:54.383Z,11.18
2022-10-23T23:24:24.353Z,11.04
2022-10-23T23:26:54.147Z,10.99
2022-10-23T23:29:23.671Z,10.96
2022-10-23T23:31:53.456Z,10.95
2022-10-23T23:34:23.052Z,10.95
2022-10-23T23:36:52.916Z,11.03
2022-10-23T23:39:22.744Z,10.96
2022-10-23T23:41:52.574Z,11.04
2022-10-23T23:44:22.397Z,11.15
2022-10-23T23:46:52.243Z,11.15
2022-10-23T23:49:22.215Z,11.02
2022-10-23T23:51:52.246Z,11.13
2022-10-23T23:54:22.066Z,11.32
2022-10-23T23:56:51.820Z,11.18
2022-10-23T23:59:21.648Z,11.22
